createdAt,value
2022-10-04T00:01:48.108Z,5.63
2022-10-04T00:04:57.833Z,5.62
2022-10-04T00:07:29.119Z,5.40
2022-10-04T00:09:59.703Z,5.40
2022-10-04T00:12:34.781Z,5.36
2022-10-04T00:15:17.441Z,5.39
2022-10-04T00:17:44.282Z,5.37
2022-10-04T00:20:53.367Z,5.27
2022-10-04T00:23:40.098Z,5.18
2022-10-04T00:26:11.125Z,5.12
2022-10-04T00:28:37.479Z,5.05
2022-10-04T00:31:14.256Z,5.08
2022-10-04T00:33:50.575Z,5.14
2022-10-04T00:36:26.028Z,5.23
2022-10-04T00:39:04.939Z,5.19
2022-10-04T00:41:41.014Z,5.12
2022-10-04T00:44:16.373Z,5.06
2022-10-04T00:46:45.359Z,4.93
2022-10-04T00:49:14.712Z,4.84
2022-10-04T00:51:48.677Z,4.79
2022-10-04T00:54:44.501Z,4.74
2022-10-04T00:57:22.826Z,4.75
2022-10-04T01:00:03.844Z,4.77
2022-10-04T01:02:45.395Z,4.75
2022-10-04T01:05:29.131Z,4.76
2022-10-04T01:08:04.578Z,4.75
2022-10-04T01:10:41.905Z,4.69
2022-10-04T01:13:19.159Z,4.71
2022-10-04T01:15:56.931Z,4.77
2022-10-04T01:18:23.354Z,4.75
2022-10-04T01:20:54.465Z,4.65
2022-10-04T01:23:33.142Z,4.53
2022-10-04T01:25:59.894Z,4.53
2022-10-04T01:28:26.913Z,4.50
2022-10-04T01:30:54.344Z,4.51
2022-10-04T01:33:20.809Z,4.50
2022-10-04T01:35:48.127Z,4.44
2022-10-04T01:38:14.828Z,4.52
2022-10-04T01:40:51.328Z,4.50
2022-10-04T01:43:20.117Z,4.48
2022-10-04T01:45:52.033Z,4.50
2022-10-04T01:48:23.513Z,4.63
2022-10-04T01:51:06.029Z,4.64
2022-10-04T01:53:41.526Z,4.54
2022-10-04T01:56:17.483Z,4.52
2022-10-04T01:58:54.341Z,4.51
2022-10-04T02:01:41.019Z,4.50
2022-10-04T02:04:21.880Z,4.54
2022-10-04T02:06:54.203Z,4.52
2022-10-04T02:09:28.273Z,4.53
2022-10-04T02:11:56.703Z,4.51
2022-10-04T02:14:27.995Z,4.47
2022-10-04T02:16:54.615Z,4.44
2022-10-04T02:19:32.604Z,4.41
2022-10-04T02:22:02.229Z,4.49
2022-10-04T02:24:29.702Z,4.52
2022-10-04T02:26:56.426Z,4.49
2022-10-04T02:29:22.875Z,4.44
2022-10-04T02:32:09.978Z,4.42
2022-10-04T02:34:36.938Z,4.33
2022-10-04T02:37:05.213Z,4.36
2022-10-04T02:39:38.856Z,4.41
2022-10-04T02:42:22.903Z,4.46
2022-10-04T02:45:02.434Z,4.46
2022-10-04T02:47:40.607Z,4.41
2022-10-04T02:50:19.898Z,4.38
2022-10-04T02:52:53.370Z,4.39
2022-10-04T02:55:22.507Z,4.49
2022-10-04T02:57:52.681Z,4.55
2022-10-04T03:00:24.479Z,4.51
2022-10-04T03:03:18.616Z,4.40
2022-10-04T03:05:54.088Z,4.37
2022-10-04T03:08:20.761Z,4.34
2022-10-04T03:10:47.895Z,4.31
2022-10-04T03:13:16.047Z,4.31
2022-10-04T03:15:43.385Z,4.38
2022-10-04T03:18:10.733Z,4.39
2022-10-04T03:20:39.813Z,4.36
2022-10-04T03:23:07.668Z,4.40
2022-10-04T03:25:50.177Z,4.34
2022-10-04T03:28:17.759Z,4.30
2022-10-04T03:30:45.565Z,4.21
2022-10-04T03:33:24.253Z,4.14
2022-10-04T03:35:54.978Z,4.14
2022-10-04T03:38:23.679Z,4.13
2022-10-04T03:40:59.675Z,4.14
2022-10-04T03:43:34.395Z,4.08
2022-10-04T03:46:02.229Z,4.04
2022-10-04T03:48:36.372Z,4.07
2022-10-04T03:51:06.443Z,4.11
2022-10-04T03:53:42.958Z,4.11
2022-10-04T03:56:12.473Z,4.13
2022-10-04T03:58:39.260Z,4.13
2022-10-04T04:01:34.849Z,4.08
2022-10-04T04:04:18.328Z,4.14
2022-10-04T04:07:10.098Z,4.18
2022-10-04T04:09:42.888Z,4.08
2022-10-04T04:12:14.818Z,4.03
2022-10-04T04:14:43.083Z,4.04
2022-10-04T04:17:27.625Z,4.02
2022-10-04T04:19:57.745Z,3.95
2022-10-04T04:22:24.800Z,3.94
2022-10-04T04:24:52.076Z,3.90
2022-10-04T04:27:19.935Z,3.94
2022-10-04T04:29:51.755Z,3.97
2022-10-04T04:32:25.926Z,3.97
2022-10-04T04:34:58.785Z,3.98
2022-10-04T04:37:25.249Z,3.96
2022-10-04T04:39:55.320Z,3.98
2022-10-04T04:42:32.048Z,3.95
2022-10-04T04:45:06.227Z,3.97
2022-10-04T04:47:44.157Z,4.01
2022-10-04T04:50:20.121Z,4.03
2022-10-04T04:52:51.650Z,3.97
2022-10-04T04:55:19.812Z,4.00
2022-10-04T04:57:49.512Z,4.09
2022-10-04T05:00:23.614Z,4.03
2022-10-04T05:02:58.634Z,4.05
2022-10-04T05:05:28.596Z,4.05
2022-10-04T05:08:15.191Z,4.05
2022-10-04T05:11:05.915Z,4.00
2022-10-04T05:13:40.110Z,4.05
2022-10-04T05:16:15.453Z,4.12
2022-10-04T05:18:42.089Z,4.14
2022-10-04T05:21:15.044Z,4.16
2022-10-04T05:23:41.516Z,4.08
2022-10-04T05:26:12.753Z,4.05
2022-10-04T05:28:39.377Z,4.02
2022-10-04T05:31:24.040Z,4.02
2022-10-04T05:33:54.851Z,4.06
2022-10-04T05:36:50.863Z,4.02
2022-10-04T05:39:46.367Z,4.08
2022-10-04T05:42:24.208Z,4.16
2022-10-04T05:44:57.956Z,4.21
2022-10-04T05:47:30.415Z,4.16
2022-10-04T05:50:00.983Z,4.13
2022-10-04T05:52:36.755Z,4.15
2022-10-04T05:55:12.097Z,4.19
2022-10-04T05:58:18.169Z,4.20
2022-10-04T06:00:47.575Z,4.20
2022-10-04T06:03:35.413Z,4.24
2022-10-04T06:06:11.771Z,4.25
2022-10-04T06:08:53.117Z,4.31
2022-10-04T06:12:02.132Z,4.34
2022-10-04T06:14:48.833Z,4.38
2022-10-04T06:17:31.612Z,4.48
2022-10-04T06:20:19.066Z,4.53
2022-10-04T06:22:58.040Z,4.60
2022-10-04T06:25:47.414Z,4.61
2022-10-04T06:28:31.121Z,4.64
2022-10-04T06:31:25.989Z,4.65
2022-10-04T06:34:30.169Z,4.61
2022-10-04T06:37:18.863Z,4.65
2022-10-04T06:40:02.134Z,4.69
2022-10-04T06:42:57.463Z,4.76
2022-10-04T06:45:53.733Z,4.75
2022-10-04T06:48:23.017Z,4.81
2022-10-04T06:51:02.788Z,4.85
2022-10-04T06:53:45.565Z,4.92
2022-10-04T06:56:45.932Z,4.99
2022-10-04T06:59:47.118Z,5.09
2022-10-04T07:02:22.140Z,5.22
2022-10-04T07:05:09.733Z,5.34
2022-10-04T07:07:40.360Z,5.43
2022-10-04T07:10:35.035Z,5.51
2022-10-04T07:13:04.246Z,5.68
2022-10-04T07:15:41.453Z,5.80
2022-10-04T07:18:16.939Z,5.91
2022-10-04T07:20:43.983Z,6.02
2022-10-04T07:23:27.562Z,6.15
2022-10-04T07:26:02.012Z,6.23
2022-10-04T07:28:58.309Z,6.26
2022-10-04T07:31:31.042Z,6.38
2022-10-04T07:34:09.576Z,6.50
2022-10-04T07:36:48.992Z,6.59
2022-10-04T07:39:33.971Z,6.70
2022-10-04T07:42:13.629Z,6.82
2022-10-04T07:44:48.520Z,6.88
2022-10-04T07:47:25.693Z,6.97
2022-10-04T07:49:53.995Z,7.06
2022-10-04T07:52:43.611Z,7.18
2022-10-04T07:55:42.888Z,7.24
2022-10-04T07:58:24.011Z,7.32
2022-10-04T08:00:59.328Z,7.37
2022-10-04T08:03:59.697Z,7.53
2022-10-04T08:06:33.308Z,7.65
2022-10-04T08:09:23.572Z,7.80
2022-10-04T08:12:17.491Z,7.97
2022-10-04T08:14:56.490Z,8.19
2022-10-04T08:17:30.483Z,8.38
2022-10-04T08:20:26.456Z,8.57
2022-10-04T08:23:16.046Z,8.74
2022-10-04T08:26:13.076Z,8.92
2022-10-04T08:29:23.228Z,9.07
2022-10-04T08:32:07.920Z,9.24
2022-10-04T08:34:53.098Z,9.35
2022-10-04T08:37:57.143Z,9.47
2022-10-04T08:40:33.259Z,9.62
2022-10-04T08:43:19.702Z,9.76
2022-10-04T08:46:23.879Z,9.94
2022-10-04T08:49:26.886Z,10.06
2022-10-04T08:52:30.758Z,10.16
2022-10-04T08:55:20.913Z,10.24
2022-10-04T08:58:02.636Z,10.32
2022-10-04T09:00:55.843Z,10.40
2022-10-04T09:04:01.733Z,10.48
2022-10-04T09:07:05.614Z,10.53
2022-10-04T09:09:44.448Z,10.65
2022-10-04T09:12:28.933Z,10.75
2022-10-04T09:15:26.040Z,10.85
2022-10-04T09:18:21.070Z,10.97
2022-10-04T09:21:01.158Z,11.08
2022-10-04T09:23:55.422Z,11.18
2022-10-04T09:26:24.407Z,11.31
2022-10-04T09:29:14.394Z,11.41
2022-10-04T09:32:05.658Z,11.54
2022-10-04T09:35:09.450Z,11.64
2022-10-04T09:37:57.794Z,11.76
2022-10-04T09:40:30.311Z,11.92
2022-10-04T09:43:11.944Z,12.04
2022-10-04T09:46:11.952Z,12.18
2022-10-04T09:48:52.426Z,12.33
2022-10-04T09:51:30.570Z,12.46
2022-10-04T09:53:59.958Z,12.59
2022-10-04T09:57:12.490Z,12.72
2022-10-04T09:59:57.901Z,12.91
2022-10-04T10:03:15.604Z,13.06
2022-10-04T10:05:57.638Z,13.20
2022-10-04T10:08:36.255Z,13.40
2022-10-04T10:11:39.466Z,13.58
2022-10-04T10:14:20.724Z,13.75
2022-10-04T10:17:00.958Z,13.98
2022-10-04T10:19:47.641Z,14.21
2022-10-04T10:22:35.828Z,14.25
2022-10-04T10:25:22.127Z,14.49
2022-10-04T10:28:11.598Z,14.62
2022-10-04T10:31:09.124Z,14.74
2022-10-04T10:33:58.416Z,14.89
2022-10-04T10:36:27.790Z,15.06
2022-10-04T10:39:09.338Z,15.16
2022-10-04T10:41:42.173Z,15.28
2022-10-04T10:44:39.664Z,15.43
2022-10-04T10:47:36.512Z,15.58
2022-10-04T10:50:05.980Z,15.69
2022-10-04T10:53:20.123Z,15.80
2022-10-04T10:56:08.548Z,15.95
2022-10-04T10:58:46.679Z,15.84
2022-10-04T11:01:32.023Z,15.91
2022-10-04T11:04:23.935Z,16.07
2022-10-04T11:07:20.493Z,16.06
2022-10-04T11:10:08.704Z,16.18
2022-10-04T11:12:35.056Z,16.33
2022-10-04T11:15:39.111Z,16.49
2022-10-04T11:18:24.058Z,16.62
2022-10-04T11:21:05.862Z,16.70
2022-10-04T11:23:56.698Z,16.80
2022-10-04T11:26:39.512Z,16.92
2022-10-04T11:29:14.655Z,17.00
2022-10-04T11:32:20.587Z,17.07
2022-10-04T11:34:50.802Z,17.21
2022-10-04T11:37:47.553Z,17.33
2022-10-04T11:40:53.452Z,17.47
2022-10-04T11:43:42.949Z,17.50
2022-10-04T11:46:36.061Z,17.64
2022-10-04T11:49:45.888Z,17.79
2022-10-04T11:52:44.177Z,17.77
2022-10-04T11:55:53.981Z,17.80
2022-10-04T11:58:45.894Z,18.13
2022-10-04T12:01:49.983Z,18.22
2022-10-04T12:04:45.304Z,18.35
2022-10-04T12:07:30.927Z,18.59
2022-10-04T12:10:12.238Z,18.70
2022-10-04T12:13:05.345Z,18.68
2022-10-04T12:15:45.243Z,18.81
2022-10-04T12:18:21.690Z,18.92
2022-10-04T12:20:54.383Z,18.83
2022-10-04T12:23:48.708Z,18.65
2022-10-04T12:26:55.850Z,18.50
2022-10-04T12:29:58.161Z,18.62
2022-10-04T12:32:58.186Z,18.92
2022-10-04T12:36:02.918Z,19.15
2022-10-04T12:38:39.122Z,19.37
2022-10-04T12:41:27.699Z,19.45
2022-10-04T12:44:17.593Z,19.52
2022-10-04T12:47:05.828Z,19.66
2022-10-04T12:50:08.683Z,19.76
2022-10-04T12:53:17.902Z,19.89
2022-10-04T12:56:05.857Z,19.99
2022-10-04T12:58:51.141Z,20.16
2022-10-04T13:01:42.512Z,20.35
2022-10-04T13:04:35.914Z,20.48
2022-10-04T13:07:11.098Z,20.61
2022-10-04T13:10:05.718Z,20.69
2022-10-04T13:12:56.967Z,20.92
2022-10-04T13:15:23.742Z,21.04
2022-10-04T13:18:22.076Z,21.17
2022-10-04T13:21:00.089Z,21.33
2022-10-04T13:24:07.839Z,21.35
2022-10-04T13:26:42.808Z,21.45
2022-10-04T13:29:21.411Z,21.56
2022-10-04T13:32:03.595Z,21.75
2022-10-04T13:34:41.266Z,21.87
2022-10-04T13:37:28.305Z,21.88
2022-10-04T13:39:54.658Z,21.93
2022-10-04T13:42:31.670Z,22.09
2022-10-04T13:45:03.956Z,22.30
2022-10-04T13:47:52.364Z,22.33
2022-10-04T13:51:14.303Z,22.41
2022-10-04T13:54:23.994Z,22.63
2022-10-04T13:57:05.498Z,22.76
2022-10-04T13:59:46.550Z,22.89
2022-10-04T14:02:43.743Z,22.98
2022-10-04T14:05:27.281Z,23.14
2022-10-04T14:08:21.472Z,23.32
2022-10-04T14:11:25.264Z,23.46
2022-10-04T14:14:10.217Z,23.60
2022-10-04T14:17:07.499Z,23.67
2022-10-04T14:19:58.144Z,23.72
2022-10-04T14:22:43.345Z,23.86
2022-10-04T14:25:28.333Z,23.98
2022-10-04T14:28:26.979Z,24.05
2022-10-04T14:31:07.206Z,24.22
2022-10-04T14:33:45.593Z,24.25
2022-10-04T14:36:38.228Z,24.39
2022-10-04T14:39:35.411Z,24.45
2022-10-04T14:42:39.294Z,24.43
2022-10-04T14:45:08.821Z,24.57
2022-10-04T14:48:00.597Z,24.60
2022-10-04T14:50:30.899Z,24.70
2022-10-04T14:53:22.098Z,24.85
2022-10-04T14:56:03.859Z,24.96
2022-10-04T14:58:49.002Z,25.01
2022-10-04T15:01:18.474Z,25.05
2022-10-04T15:04:00.458Z,25.12
2022-10-04T15:06:49.604Z,25.18
2022-10-04T15:09:39.375Z,25.17
2022-10-04T15:12:58.116Z,25.31
2022-10-04T15:15:36.907Z,25.35
2022-10-04T15:18:31.166Z,25.33
2022-10-04T15:21:22.487Z,25.42
2022-10-04T15:24:13.530Z,25.53
2022-10-04T15:26:50.531Z,25.56
2022-10-04T15:29:28.515Z,25.57
2022-10-04T15:32:19.961Z,25.66
2022-10-04T15:35:23.734Z,25.70
2022-10-04T15:38:04.723Z,25.76
2022-10-04T15:40:47.287Z,25.72
2022-10-04T15:43:27.534Z,25.73
2022-10-04T15:46:03.944Z,25.64
2022-10-04T15:48:53.538Z,25.61
2022-10-04T15:51:41.484Z,25.45
2022-10-04T15:54:52.765Z,25.32
2022-10-04T15:57:34.404Z,25.14
2022-10-04T16:00:26.219Z,25.01
2022-10-04T16:03:32.401Z,24.82
2022-10-04T16:06:05.515Z,24.63
2022-10-04T16:08:49.987Z,24.52
2022-10-04T16:11:47.111Z,24.32
2022-10-04T16:14:33.289Z,24.07
2022-10-04T16:17:09.725Z,23.88
2022-10-04T16:19:59.977Z,23.62
2022-10-04T16:22:34.215Z,23.35
2022-10-04T16:25:25.633Z,23.12
2022-10-04T16:27:54.811Z,22.73
2022-10-04T16:30:37.979Z,22.43
2022-10-04T16:33:31.274Z,22.09
2022-10-04T16:36:03.185Z,21.74
2022-10-04T16:38:35.693Z,21.30
2022-10-04T16:41:10.496Z,20.69
2022-10-04T16:43:49.344Z,20.19
2022-10-04T16:46:15.784Z,19.77
2022-10-04T16:49:01.019Z,19.38
2022-10-04T16:51:44.768Z,19.09
2022-10-04T16:54:27.698Z,18.65
2022-10-04T16:56:54.184Z,18.20
2022-10-04T16:59:38.700Z,17.79
2022-10-04T17:02:23.198Z,17.53
2022-10-04T17:05:22.674Z,17.34
2022-10-04T17:08:04.719Z,17.15
2022-10-04T17:10:49.128Z,17.00
2022-10-04T17:13:37.335Z,16.82
2022-10-04T17:16:18.058Z,16.56
2022-10-04T17:18:44.620Z,16.31
2022-10-04T17:21:20.909Z,16.13
2022-10-04T17:24:10.937Z,16.08
2022-10-04T17:26:58.995Z,15.96
2022-10-04T17:29:36.987Z,15.73
2022-10-04T17:32:24.622Z,15.61
2022-10-04T17:35:09.021Z,15.49
2022-10-04T17:37:44.590Z,15.35
2022-10-04T17:40:29.150Z,15.23
2022-10-04T17:43:26.274Z,15.11
2022-10-04T17:46:05.088Z,14.80
2022-10-04T17:48:52.649Z,14.57
2022-10-04T17:52:01.864Z,14.33
2022-10-04T17:55:02.434Z,14.08
2022-10-04T17:57:34.159Z,13.91
2022-10-04T18:00:10.363Z,13.83
2022-10-04T18:02:57.400Z,13.67
2022-10-04T18:05:29.831Z,13.48
2022-10-04T18:08:17.791Z,13.40
2022-10-04T18:10:56.022Z,13.27
2022-10-04T18:13:31.441Z,13.22
2022-10-04T18:16:22.513Z,13.24
2022-10-04T18:18:49.386Z,13.22
2022-10-04T18:21:15.736Z,13.19
2022-10-04T18:23:59.992Z,13.17
2022-10-04T18:26:29.751Z,13.13
2022-10-04T18:29:00.435Z,12.98
2022-10-04T18:31:37.416Z,12.88
2022-10-04T18:34:26.477Z,12.85
2022-10-04T18:37:29.580Z,12.81
2022-10-04T18:40:10.512Z,12.77
2022-10-04T18:42:42.508Z,12.82
2022-10-04T18:45:58.747Z,12.74
2022-10-04T18:48:37.738Z,12.72
2022-10-04T18:51:45.013Z,12.65
2022-10-04T18:54:33.727Z,12.49
2022-10-04T18:57:03.081Z,12.41
2022-10-04T19:00:28.249Z,12.16
2022-10-04T19:03:16.800Z,12.08
2022-10-04T19:05:54.214Z,12.01
2022-10-04T19:08:48.367Z,11.91
2022-10-04T19:11:31.520Z,11.85
2022-10-04T19:14:21.834Z,11.74
2022-10-04T19:17:11.372Z,11.65
2022-10-04T19:19:37.806Z,11.69
2022-10-04T19:22:26.628Z,11.55
2022-10-04T19:25:19.930Z,11.51
2022-10-04T19:27:57.197Z,11.48
2022-10-04T19:30:48.343Z,11.42
2022-10-04T19:33:20.407Z,11.33
2022-10-04T19:35:46.806Z,11.31
2022-10-04T19:38:43.024Z,11.30
2022-10-04T19:41:21.633Z,11.27
2022-10-04T19:44:23.212Z,11.17
2022-10-04T19:46:59.181Z,11.14
2022-10-04T19:49:40.854Z,11.20
2022-10-04T19:52:26.558Z,11.19
2022-10-04T19:55:00.229Z,11.18
2022-10-04T19:57:50.175Z,11.06
2022-10-04T20:00:16.822Z,10.87
2022-10-04T20:02:48.520Z,10.70
2022-10-04T20:05:24.522Z,10.61
2022-10-04T20:07:55.847Z,10.52
2022-10-04T20:10:34.792Z,10.47
2022-10-04T20:13:40.305Z,10.35
2022-10-04T20:16:06.867Z,10.25
2022-10-04T20:18:33.326Z,10.25
2022-10-04T20:21:03.317Z,10.23
2022-10-04T20:23:38.942Z,10.25
2022-10-04T20:26:07.784Z,10.19
2022-10-04T20:28:38.638Z,10.21
2022-10-04T20:31:06.920Z,10.14
2022-10-04T20:33:36.883Z,9.92
2022-10-04T20:36:29.392Z,9.84
2022-10-04T20:38:59.575Z,9.84
2022-10-04T20:41:28.715Z,9.88
2022-10-04T20:44:02.322Z,9.88
2022-10-04T20:46:38.941Z,9.88
2022-10-04T20:49:15.941Z,9.93
2022-10-04T20:51:49.694Z,9.88
2022-10-04T20:54:20.957Z,9.77
2022-10-04T20:56:49.488Z,9.68
2022-10-04T20:59:17.914Z,9.64
2022-10-04T21:02:02.760Z,9.71
2022-10-04T21:04:32.353Z,9.73
2022-10-04T21:07:07.794Z,9.64
2022-10-04T21:09:36.926Z,9.68
2022-10-04T21:12:05.043Z,9.64
2022-10-04T21:14:33.934Z,9.60
2022-10-04T21:17:04.688Z,9.57
2022-10-04T21:19:35.693Z,9.55
2022-10-04T21:22:04.308Z,9.53
2022-10-04T21:24:40.902Z,9.58
2022-10-04T21:27:12.394Z,9.55
2022-10-04T21:29:39.587Z,9.55
2022-10-04T21:32:06.243Z,9.57
2022-10-04T21:34:52.599Z,9.60
2022-10-04T21:37:19.821Z,9.59
2022-10-04T21:39:46.258Z,9.59
2022-10-04T21:42:12.807Z,9.58
2022-10-04T21:44:39.292Z,9.43
2022-10-04T21:47:05.866Z,9.30
2022-10-04T21:49:32.396Z,9.33
2022-10-04T21:51:58.823Z,9.33
2022-10-04T21:54:25.274Z,9.27
2022-10-04T21:56:53.813Z,9.18
2022-10-04T21:59:20.790Z,9.04
2022-10-04T22:01:47.322Z,8.82
2022-10-04T22:04:13.835Z,8.63
2022-10-04T22:06:41.231Z,8.56
2022-10-04T22:09:08.245Z,8.44
2022-10-04T22:11:34.756Z,8.31
2022-10-04T22:14:01.219Z,8.27
2022-10-04T22:16:27.832Z,8.26
2022-10-04T22:18:55.199Z,8.28
2022-10-04T22:21:21.629Z,8.22
2022-10-04T22:23:48.132Z,8.19
2022-10-04T22:26:20.715Z,8.17
2022-10-04T22:28:48.756Z,8.13
2022-10-04T22:31:18.801Z,8.14
2022-10-04T22:33:47.866Z,8.19
2022-10-04T22:36:26.313Z,8.21
2022-10-04T22:39:03.325Z,8.09
2022-10-04T22:41:41.381Z,8.08
2022-10-04T22:44:36.970Z,8.05
2022-10-04T22:47:10.725Z,7.95
2022-10-04T22:49:40.171Z,7.96
2022-10-04T22:52:16.817Z,7.94
2022-10-04T22:54:46.295Z,7.84
2022-10-04T22:57:15.005Z,7.84
2022-10-04T22:59:45.323Z,7.84
2022-10-04T23:02:17.462Z,7.79
2022-10-04T23:04:50.898Z,7.74
2022-10-04T23:07:18.298Z,7.67
2022-10-04T23:09:45.070Z,7.63
2022-10-04T23:12:11.685Z,7.55
2022-10-04T23:14:39.670Z,7.58
2022-10-04T23:17:21.909Z,7.55
2022-10-04T23:19:49.718Z,7.52
2022-10-04T23:22:19.537Z,7.56
2022-10-04T23:24:45.979Z,7.47
2022-10-04T23:27:17.247Z,7.46
2022-10-04T23:29:46.532Z,7.46
2022-10-04T23:32:15.214Z,7.41
2022-10-04T23:34:45.523Z,7.31
2022-10-04T23:37:19.072Z,7.23
2022-10-04T23:39:46.151Z,7.19
2022-10-04T23:42:33.751Z,7.21
2022-10-04T23:45:01.909Z,7.17
2022-10-04T23:47:36.737Z,7.16
2022-10-04T23:50:19.350Z,7.18
2022-10-04T23:52:45.761Z,7.19
2022-10-04T23:55:24.003Z,7.22
2022-10-04T23:57:50.557Z,7.16
